Time;durP1;ratioP1;P1;durP2;ratioP2;P2;SDS_P1;SDS_P2;PMS_P1;PMS_P2;Temp;Humidity;BMP_temperature;BMP_pressure;BME280_temperature;BME280_humidity;BME280_pressure;Samples;Min_cycle;Max_cycle;Signal;HPM_P1;HPM_P2
2022/10/02 00:01:16;;;;;;;0.90;0.90;;;;;;;20.05;100.00;99512.06;5096065;28;20247;-74
2022/10/02 00:03:45;;;;;;;0.80;0.80;;;;;;;19.95;100.00;99523.81;5095666;28;20283;-82
2022/10/02 00:06:18;;;;;;;0.80;0.80;;;;;;;19.84;100.00;99532.94;5098976;28;20189;-81
2022/10/02 00:08:48;;;;;;;0.75;0.75;;;;;;;19.79;100.00;99522.59;5092346;28;20212;-80
2022/10/02 00:11:20;;;;;;;0.80;0.80;;;;;;;19.44;100.00;99436.88;5091635;28;20198;-80
2022/10/02 00:13:49;;;;;;;0.75;0.75;;;;;;;19.89;100.00;99497.69;5092245;28;20202;-82
2022/10/02 00:16:25;;;;;;;0.70;0.70;;;;;;;19.89;100.00;99486.31;5042141;28;20209;-81
2022/10/02 00:18:54;;;;;;;0.70;0.70;;;;;;;19.88;100.00;99488.06;5094302;28;20755;-80
2022/10/02 00:21:40;;;;;;;0.88;0.88;;;;;;;19.91;100.00;99477.44;5096280;28;20206;-81
2022/10/02 00:24:15;;;;;;;0.70;0.70;;;;;;;19.88;100.00;99461.75;5093677;28;20214;-81
2022/10/02 00:26:51;;;;;;;0.70;0.70;;;;;;;19.84;100.00;99454.88;5092019;28;20204;-82
2022/10/02 00:29:31;;;;;;;0.63;0.63;;;;;;;19.99;100.00;99459.63;5094633;28;20202;-82
2022/10/02 00:32:12;;;;;;;0.80;0.80;;;;;;;19.97;100.00;99448.31;5092428;28;20287;-82
2022/10/02 00:34:49;;;;;;;0.75;0.75;;;;;;;19.98;100.00;99457.91;5094122;28;21033;-82
2022/10/02 00:37:26;;;;;;;0.80;0.80;;;;;;;20.14;100.00;99448.59;5099263;28;20197;-82
2022/10/02 00:40:11;;;;;;;0.85;0.85;;;;;;;19.97;100.00;99448.31;5094839;28;20707;-80
2022/10/02 00:43:05;;;;;;;4.32;1.98;;;;;;;20.01;100.00;99431.50;5076975;28;20217;-81
2022/10/02 00:45:46;;;;;;;1.20;1.20;;;;;;;20.00;100.00;99427.16;5014820;28;20521;-81
2022/10/02 00:48:30;;;;;;;0.85;0.85;;;;;;;20.01;100.00;99420.13;5009710;28;20364;-81
2022/10/02 00:51:05;;;;;;;0.80;0.80;;;;;;;19.93;100.00;99417.75;5015650;28;20204;-80
2022/10/02 00:53:43;;;;;;;0.80;0.80;;;;;;;20.04;100.00;99425.28;4986577;28;20204;-82
2022/10/02 00:56:25;;;;;;;0.80;0.80;;;;;;;19.97;100.00;99427.28;5008254;28;20200;-81
2022/10/02 00:59:06;;;;;;;0.98;0.98;;;;;;;19.89;100.00;99395.09;5012802;28;20205;-82
2022/10/02 01:01:41;;;;;;;0.90;0.90;;;;;;;20.09;100.00;99387.34;5011168;28;20208;-79
2022/10/02 01:04:11;;;;;;;0.70;0.70;;;;;;;20.04;100.00;99431.41;5013690;28;20285;-82
2022/10/02 01:06:38;;;;;;;0.80;0.80;;;;;;;19.89;100.00;99407.38;5016222;28;20201;-81
2022/10/02 01:09:04;;;;;;;0.70;0.70;;;;;;;19.87;100.00;99391.63;5013156;28;20228;-81
2022/10/02 01:11:35;;;;;;;0.70;0.70;;;;;;;19.95;100.00;99379.06;5016871;28;20196;-82
2022/10/02 01:14:02;;;;;;;0.82;0.82;;;;;;;19.80;100.00;99382.22;5017356;28;20294;-81
2022/10/02 01:16:30;;;;;;;0.73;0.73;;;;;;;19.79;100.00;99362.97;5012653;28;20321;-81
2022/10/02 01:18:56;;;;;;;0.80;0.80;;;;;;;19.92;100.00;99384.44;5011717;28;20197;-81
2022/10/02 01:21:33;;;;;;;0.70;0.70;;;;;;;20.04;100.00;99378.78;5014221;28;20627;-84
2022/10/02 01:24:08;;;;;;;0.98;0.93;;;;;;;19.89;100.00;99352.97;5095803;28;20229;-80
2022/10/02 01:26:36;;;;;;;0.70;0.70;;;;;;;20.06;100.00;99424.31;5097821;28;20205;-84
2022/10/02 01:29:04;;;;;;;0.77;0.77;;;;;;;19.94;100.00;99448.41;5097020;28;20645;-85
2022/10/02 01:31:33;;;;;;;1.08;1.00;;;;;;;19.84;100.00;99465.41;5099323;28;20669;-82
2022/10/02 01:34:00;;;;;;;1.05;1.00;;;;;;;19.77;100.00;99461.25;5095790;28;20229;-82
2022/10/02 01:36:27;;;;;;;1.17;1.13;;;;;;;19.97;100.00;99487.78;5066034;28;20681;-82
2022/10/02 01:38:55;;;;;;;0.90;0.90;;;;;;;19.98;100.00;99478.09;5042122;28;20194;-81
2022/10/02 01:41:22;;;;;;;5.45;2.15;;;;;;;19.73;100.00;99473.63;5100121;28;20193;-83
2022/10/02 01:43:53;;;;;;;0.80;0.80;;;;;;;19.66;100.00;99447.56;5097395;28;20607;-79
2022/10/02 01:46:41;;;;;;;0.70;0.70;;;;;;;19.66;100.00;99460.72;5099610;28;20228;-81
2022/10/02 01:49:23;;;;;;;0.80;0.80;;;;;;;19.65;100.00;99464.28;5100376;28;20185;-83
2022/10/02 01:52:08;;;;;;;1.05;1.05;;;;;;;19.55;100.00;99476.00;5099321;28;20201;-81
2022/10/02 01:54:47;;;;;;;0.80;0.80;;;;;;;19.57;100.00;99467.16;5099141;28;20190;-80
2022/10/02 01:57:23;;;;;;;0.80;0.80;;;;;;;19.45;100.00;99469.28;5097932;28;20209;-80
2022/10/02 02:00:04;;;;;;;0.73;0.73;;;;;;;19.42;100.00;99486.03;5097455;28;20197;-81
2022/10/02 02:02:41;;;;;;;0.80;0.80;;;;;;;19.35;100.00;99494.97;5097863;28;20267;-82
2022/10/02 02:05:12;;;;;;;0.98;0.90;;;;;;;19.19;100.00;99486.66;5099452;28;20680;-82
2022/10/02 02:07:47;;;;;;;1.08;1.05;;;;;;;19.33;100.00;99503.81;5097319;28;20193;-81
2022/10/02 02:10:22;;;;;;;0.98;0.82;;;;;;;19.33;100.00;99504.69;5044253;28;20193;-78
2022/10/02 02:12:58;;;;;;;0.95;0.95;;;;;;;19.26;100.00;99497.88;5093861;28;20208;-80
2022/10/02 02:15:34;;;;;;;0.70;0.70;;;;;;;19.21;100.00;99505.03;5095168;28;20201;-80
2022/10/02 02:18:07;;;;;;;0.80;0.80;;;;;;;19.10;100.00;99486.09;5080469;28;20201;-81
2022/10/02 02:20:40;;;;;;;0.80;0.80;;;;;;;19.05;100.00;99515.13;5065822;28;20205;-80
2022/10/02 02:23:17;;;;;;;0.70;0.70;;;;;;;19.12;100.00;99516.66;5097097;28;20236;-81
2022/10/02 02:25:49;;;;;;;0.73;0.73;;;;;;;19.11;100.00;99519.34;5095054;28;20604;-81
2022/10/02 02:28:21;;;;;;;0.70;0.70;;;;;;;19.11;100.00;99508.84;5097580;28;20194;-81
2022/10/02 02:30:52;;;;;;;0.60;0.60;;;;;;;19.07;100.00;99526.47;5095775;28;20217;-80
2022/10/02 02:33:24;;;;;;;0.80;0.80;;;;;;;19.01;100.00;99528.41;5098372;28;20229;-80
2022/10/02 02:35:54;;;;;;;0.80;0.80;;;;;;;19.03;100.00;99534.47;5096365;28;20198;-80
2022/10/02 02:38:29;;;;;;;0.80;0.80;;;;;;;18.57;100.00;99450.81;5097413;28;20209;-78
2022/10/02 02:40:59;;;;;;;0.70;0.70;;;;;;;19.04;100.00;99549.34;5095609;28;20205;-80
2022/10/02 02:43:31;;;;;;;0.70;0.70;;;;;;;18.98;100.00;99545.09;5095276;28;20237;-81
2022/10/02 02:46:06;;;;;;;1.02;0.95;;;;;;;18.83;100.00;99531.53;5098403;28;20206;-81
2022/10/02 02:48:38;;;;;;;0.60;0.60;;;;;;;18.85;100.00;99537.59;5097159;28;20240;-80
2022/10/02 02:51:10;;;;;;;0.90;0.90;;;;;;;18.73;100.00;99530.91;5098158;28;20232;-79
2022/10/02 02:53:42;;;;;;;0.70;0.70;;;;;;;18.55;100.00;99513.03;5097777;28;20209;-81
2022/10/02 02:56:13;;;;;;;0.80;0.80;;;;;;;18.64;100.00;99518.03;5096794;28;20219;-82
2022/10/02 02:58:45;;;;;;;0.60;0.60;;;;;;;18.65;100.00;99525.00;5095862;28;20294;-81
2022/10/02 03:01:13;;;;;;;0.70;0.70;;;;;;;18.58;100.00;99539.22;5093075;28;20202;-78
2022/10/02 03:03:40;;;;;;;0.70;0.70;;;;;;;18.46;100.00;99536.84;5096387;28;20685;-83
2022/10/02 03:06:26;;;;;;;0.90;0.90;;;;;;;18.51;100.00;99537.66;5093146;28;20586;-81
2022/10/02 03:08:54;;;;;;;1.20;1.00;;;;;;;18.47;100.00;99549.09;5096506;28;20209;-80
2022/10/02 03:11:31;;;;;;;0.80;0.80;;;;;;;18.38;100.00;99536.19;5099157;28;20198;-80
2022/10/02 03:14:03;;;;;;;0.80;0.80;;;;;;;18.39;100.00;99540.53;5100193;28;20189;-81
2022/10/02 03:16:43;;;;;;;0.73;0.73;;;;;;;18.55;100.00;99566.38;5112860;28;20584;-81
2022/10/02 03:19:21;;;;;;;0.80;0.80;;;;;;;18.53;100.00;99577.84;5098847;28;20346;-82
2022/10/02 03:21:58;;;;;;;0.65;0.65;;;;;;;18.21;100.00;99521.72;5092052;28;20197;-81
2022/10/02 03:24:30;;;;;;;0.77;0.77;;;;;;;18.56;100.00;99590.88;5095587;28;20229;-82
2022/10/02 03:27:05;;;;;;;1.25;1.25;;;;;;;18.61;100.00;99605.63;5096247;28;20208;-81
2022/10/02 03:29:44;;;;;;;0.80;0.80;;;;;;;18.41;100.00;99562.38;5100909;28;20197;-81
2022/10/02 03:32:15;;;;;;;0.70;0.70;;;;;;;18.52;100.00;99600.59;5093251;28;20222;-80
2022/10/02 03:34:42;;;;;;;0.70;0.70;;;;;;;18.34;100.00;99598.38;5095225;28;20198;-81
2022/10/02 03:37:09;;;;;;;1.02;1.02;;;;;;;18.31;100.00;99587.97;5099655;28;20205;-80
2022/10/02 03:39:40;;;;;;;0.80;0.80;;;;;;;18.40;100.00;99577.25;5099647;28;20202;-80
2022/10/02 03:42:08;;;;;;;0.77;0.77;;;;;;;18.41;100.00;99613.09;5105780;28;20198;-81
2022/10/02 03:44:35;;;;;;;0.80;0.80;;;;;;;18.32;100.00;99605.44;5097489;28;20229;-82
2022/10/02 03:47:02;;;;;;;0.80;0.80;;;;;;;18.30;100.00;99623.84;5089976;28;20653;-81
2022/10/02 03:49:30;;;;;;;0.70;0.70;;;;;;;18.33;100.00;99633.44;5098744;28;20197;-80
2022/10/02 03:51:57;;;;;;;0.70;0.70;;;;;;;18.17;100.00;99608.44;5095274;28;20194;-82
2022/10/02 03:54:24;;;;;;;0.70;0.70;;;;;;;18.19;100.00;99623.22;5099572;28;20200;-80
2022/10/02 03:56:56;;;;;;;0.60;0.60;;;;;;;18.23;100.00;99631.91;5062756;28;20193;-81
2022/10/02 03:59:38;;;;;;;0.80;0.80;;;;;;;17.88;100.00;99569.75;5096180;28;20601;-81
2022/10/02 04:02:11;;;;;;;0.70;0.70;;;;;;;18.18;100.00;99634.66;5101907;28;20194;-82
2022/10/02 04:04:46;;;;;;;0.80;0.80;;;;;;;18.17;100.00;99625.03;5097590;28;20727;-80
2022/10/02 04:07:19;;;;;;;0.80;0.80;;;;;;;17.99;100.00;99621.97;5095691;28;20201;-81
2022/10/02 04:09:52;;;;;;;0.70;0.70;;;;;;;18.25;100.00;99645.88;5097659;28;20206;-81
2022/10/02 04:12:25;;;;;;;0.80;0.80;;;;;;;18.14;100.00;99640.88;5094815;28;20209;-78
2022/10/02 04:14:57;;;;;;;0.70;0.70;;;;;;;18.16;100.00;99649.56;5092987;28;20197;-81
2022/10/02 04:17:30;;;;;;;0.85;0.82;;;;;;;18.19;100.00;99661.75;5091287;28;20243;-80
2022/10/02 04:20:03;;;;;;;1.00;0.90;;;;;;;18.17;100.00;99650.41;5092072;28;20198;-82
2022/10/02 04:22:37;;;;;;;0.82;0.80;;;;;;;17.70;100.00;99578.03;5094808;28;20685;-80
2022/10/02 04:25:10;;;;;;;0.80;0.80;;;;;;;18.06;100.00;99655.91;5094234;28;20190;-82
2022/10/02 04:27:40;;;;;;;0.80;0.80;;;;;;;17.59;100.00;99587.88;5097070;28;20194;-80
2022/10/02 04:30:10;;;;;;;0.90;0.90;;;;;;;17.94;100.00;99645.69;5094481;28;20212;-81
2022/10/02 04:32:38;;;;;;;1.67;1.02;;;;;;;18.02;100.00;99666.50;5097238;28;20792;-81
2022/10/02 04:35:16;;;;;;;0.70;0.70;;;;;;;18.18;100.00;99668.75;5095374;28;20225;-80
2022/10/02 04:38:01;;;;;;;0.70;0.70;;;;;;;18.35;100.00;99684.13;5040693;28;20201;-82
2022/10/02 04:40:40;;;;;;;0.70;0.70;;;;;;;18.30;100.00;99680.72;5095692;28;20284;-79
2022/10/02 04:43:21;;;;;;;2.00;1.77;;;;;;;18.29;100.00;99661.50;5091192;28;20213;-76
2022/10/02 04:46:00;;;;;;;0.73;0.73;;;;;;;18.29;100.00;99671.16;5097502;28;20573;-79
2022/10/02 04:49:05;;;;;;;0.80;0.80;;;;;;;18.33;100.00;99676.25;5098558;28;20194;-89
2022/10/02 04:51:48;;;;;;;0.70;0.70;;;;;;;18.24;100.00;99666.00;5038043;28;20593;-83
2022/10/02 04:54:41;;;;;;;0.65;0.65;;;;;;;18.22;100.00;99664.31;5033998;28;20218;-80
2022/10/02 04:57:39;;;;;;;0.70;0.70;;;;;;;18.29;100.00;99687.75;5036502;28;20195;-80
2022/10/02 05:00:10;;;;;;;0.70;0.70;;;;;;;18.12;100.00;99660.19;4995659;28;20208;-79
2022/10/02 05:02:48;;;;;;;0.70;0.70;;;;;;;18.25;100.00;99696.59;4995707;28;20280;-80
2022/10/02 05:05:25;;;;;;;0.70;0.70;;;;;;;18.38;100.00;99691.06;4991529;28;20197;-80
2022/10/02 05:08:39;;;;;;;0.73;0.73;;;;;;;18.33;100.00;99692.00;4994982;28;20197;-78
2022/10/02 05:11:21;;;;;;;1.00;1.00;;;;;;;18.05;100.00;99648.91;4958549;28;21784;-79
2022/10/02 05:14:05;;;;;;;0.90;0.90;;;;;;;18.29;100.00;99692.16;4940290;28;20206;-81
2022/10/02 05:16:53;;;;;;;0.80;0.80;;;;;;;18.40;100.00;99687.53;4956267;28;20205;-83
2022/10/02 05:19:35;;;;;;;0.70;0.70;;;;;;;18.25;100.00;99672.09;4949586;28;20298;-81
2022/10/02 05:22:28;;;;;;;0.77;0.77;;;;;;;18.42;100.00;99711.09;4952548;28;20201;-72
2022/10/02 05:25:12;;;;;;;0.73;0.73;;;;;;;18.30;100.00;99705.22;4877474;29;20229;-85
2022/10/02 05:27:54;;;;;;;0.80;0.80;;;;;;;18.47;100.00;99730.25;4897309;29;20211;-87
2022/10/02 05:30:21;;;;;;;0.70;0.70;;;;;;;18.39;100.00;99721.66;4934860;29;20207;-84
2022/10/02 05:33:14;;;;;;;1.50;0.90;;;;;;;18.61;100.00;99723.81;4935799;28;20234;-86
2022/10/02 05:36:01;;;;;;;0.70;0.70;;;;;;;18.53;100.00;99719.63;4936738;29;20304;-86
2022/10/02 05:38:46;;;;;;;1.38;0.88;;;;;;;18.54;100.00;99723.97;4960825;28;20210;-85
2022/10/02 05:41:19;;;;;;;0.77;0.77;;;;;;;18.49;100.00;99742.44;4956289;28;20214;-86
2022/10/02 05:43:52;;;;;;;1.00;0.80;;;;;;;18.59;100.00;99729.97;4956449;28;20229;-83
2022/10/02 05:46:23;;;;;;;1.10;1.10;;;;;;;18.65;100.00;99742.97;5015789;28;20364;-83
2022/10/02 05:48:57;;;;;;;1.13;0.88;;;;;;;18.44;100.00;99710.19;5016691;28;20352;-84
2022/10/02 05:51:35;;;;;;;0.73;0.70;;;;;;;18.73;100.00;99747.13;5015229;28;20205;-85
2022/10/02 05:54:07;;;;;;;0.95;0.90;;;;;;;18.69;100.00;99734.97;5015828;28;20411;-84
2022/10/02 05:56:38;;;;;;;0.80;0.80;;;;;;;18.77;100.00;99756.69;5013845;28;20200;-84
2022/10/02 05:59:17;;;;;;;1.02;0.82;;;;;;;18.84;100.00;99754.78;4981446;28;20586;-82
2022/10/02 06:01:47;;;;;;;0.75;0.75;;;;;;;18.77;100.00;99776.81;5039615;28;20218;-86
2022/10/02 06:04:18;;;;;;;1.00;0.88;;;;;;;18.91;100.00;99779.13;5096126;28;20210;-86
2022/10/02 06:06:50;;;;;;;0.70;0.70;;;;;;;18.92;100.00;99770.34;5103776;28;20656;-84
2022/10/02 06:09:21;;;;;;;1.75;1.00;;;;;;;18.91;100.00;99774.75;5103855;28;20198;-82
2022/10/02 06:11:51;;;;;;;1.98;0.90;;;;;;;18.91;100.00;99743.22;5101979;28;20194;-82
2022/10/02 06:14:26;;;;;;;0.80;0.80;;;;;;;19.11;100.00;99782.16;5091236;28;20231;-73
2022/10/02 06:16:59;;;;;;;0.70;0.70;;;;;;;19.06;100.00;99790.16;5106561;28;20234;-83
2022/10/02 06:19:32;;;;;;;1.25;0.80;;;;;;;18.97;100.00;99793.00;5109776;28;20190;-81
2022/10/02 06:22:04;;;;;;;0.98;0.90;;;;;;;19.06;100.00;99800.66;5072342;28;20217;-79
2022/10/02 06:24:37;;;;;;;1.25;0.82;;;;;;;19.17;100.00;99793.38;5090776;28;20222;-75
2022/10/02 06:27:12;;;;;;;3.10;1.00;;;;;;;19.26;100.00;99814.16;5100024;28;20613;-75
2022/10/02 06:29:45;;;;;;;0.70;0.70;;;;;;;19.27;100.00;99821.16;5102934;28;20197;-74
2022/10/02 06:32:21;;;;;;;1.27;1.17;;;;;;;19.13;100.00;99790.84;5044705;28;20221;-78
2022/10/02 06:34:50;;;;;;;0.80;0.80;;;;;;;19.35;100.00;99814.84;5105980;28;20201;-77
2022/10/02 06:37:34;;;;;;;0.65;0.65;;;;;;;19.30;100.00;99826.34;5093172;28;20194;-78
2022/10/02 06:40:16;;;;;;;0.80;0.80;;;;;;;19.48;100.00;99845.22;5095193;28;20217;-77
2022/10/02 06:42:51;;;;;;;0.70;0.70;;;;;;;19.53;100.00;99846.84;5108679;28;20209;-76
2022/10/02 06:45:30;;;;;;;0.82;0.82;;;;;;;19.49;100.00;99847.84;5096841;28;20222;-79
2022/10/02 06:48:05;;;;;;;0.70;0.70;;;;;;;19.63;100.00;99856.22;5095620;28;20206;-76
2022/10/02 06:50:51;;;;;;;0.73;0.73;;;;;;;19.61;100.00;99830.88;5103062;28;20205;-79
2022/10/02 06:53:41;;;;;;;0.80;0.80;;;;;;;19.83;100.00;99861.00;5091768;28;20217;-78
2022/10/02 06:56:27;;;;;;;0.80;0.80;;;;;;;19.82;100.00;99867.16;5094413;28;20195;-78
2022/10/02 06:59:05;;;;;;;0.85;0.85;;;;;;;19.60;100.00;99863.34;5045776;28;20201;-81
2022/10/02 07:01:49;;;;;;;0.70;0.70;;;;;;;19.68;100.00;99875.41;5091584;28;20189;-77
2022/10/02 07:04:28;;;;;;;0.73;0.73;;;;;;;19.60;100.00;99902.81;5090392;28;20240;-75
2022/10/02 07:07:10;;;;;;;1.70;1.60;;;;;;;19.56;100.00;99902.00;5091400;28;20220;-75
2022/10/02 07:09:57;;;;;;;0.80;0.80;;;;;;;19.50;100.00;99907.44;5091203;28;20206;-75
2022/10/02 07:12:42;;;;;;;0.75;0.75;;;;;;;19.30;100.00;99888.56;5049996;28;20205;-76
2022/10/02 07:15:34;;;;;;;0.70;0.70;;;;;;;19.33;100.00;99928.81;5091769;28;20292;-76
2022/10/02 07:18:18;;;;;;;0.70;0.70;;;;;;;19.33;100.00;99920.09;5074492;28;20257;-75
2022/10/02 07:20:52;;;;;;;0.80;0.80;;;;;;;18.92;100.00;99909.59;5101110;28;20212;-76
2022/10/02 07:23:44;;;;;;;0.70;0.70;;;;;;;19.25;100.00;99922.00;5092649;28;20222;-74
2022/10/02 07:26:37;;;;;;;1.13;0.80;;;;;;;19.29;100.00;99950.84;5025385;28;20211;-74
2022/10/02 07:29:17;;;;;;;0.77;0.77;;;;;;;19.27;100.00;99934.22;5017499;28;20219;-74
2022/10/02 07:31:57;;;;;;;0.70;0.70;;;;;;;19.35;100.00;99941.06;5023054;28;20213;-75
2022/10/02 07:34:40;;;;;;;1.35;0.90;;;;;;;19.42;100.00;99905.88;4974682;28;20249;-75
2022/10/02 07:37:17;;;;;;;0.80;0.80;;;;;;;19.65;100.00;99958.81;5008665;28;20205;-75
2022/10/02 07:39:58;;;;;;;0.70;0.70;;;;;;;19.62;100.00;99943.94;5023693;28;20196;-75
2022/10/02 07:42:46;;;;;;;0.70;0.70;;;;;;;19.70;100.00;99946.38;5017939;28;20208;-75
2022/10/02 07:45:27;;;;;;;0.82;0.80;;;;;;;19.62;100.00;99938.69;5013592;28;20215;-75
2022/10/02 07:48:18;;;;;;;0.82;0.77;;;;;;;19.74;100.00;99942.78;5026619;28;20208;-75
2022/10/02 07:50:59;;;;;;;0.70;0.70;;;;;;;19.74;100.00;99954.19;4969594;28;20217;-72
2022/10/02 07:53:31;;;;;;;0.80;0.80;;;;;;;19.76;100.00;99928.69;4967287;28;20209;-72
2022/10/02 07:55:59;;;;;;;0.80;0.80;;;;;;;19.94;100.00;99966.81;4966849;28;20210;-74
2022/10/02 07:58:35;;;;;;;0.80;0.80;;;;;;;20.07;100.00;99962.13;4965514;28;20206;-74
2022/10/02 08:01:05;;;;;;;0.70;0.70;;;;;;;19.79;96.27;99946.19;4969118;28;20221;-78
2022/10/02 08:03:37;;;;;;;0.63;0.63;;;;;;;19.98;98.19;99957.97;4994663;28;20332;-76
2022/10/02 08:06:07;;;;;;;0.85;0.85;;;;;;;19.87;96.02;99965.25;5007734;28;20224;-77
2022/10/02 08:08:41;;;;;;;0.70;0.70;;;;;;;19.89;94.75;99968.72;5008772;28;20201;-77
2022/10/02 08:11:12;;;;;;;0.70;0.70;;;;;;;19.57;92.69;99931.81;4988993;28;20720;-73
2022/10/02 08:13:45;;;;;;;0.75;0.75;;;;;;;19.83;92.87;99968.88;5008312;28;20794;-77
2022/10/02 08:16:16;;;;;;;1.05;0.88;;;;;;;19.73;93.19;99984.00;5007642;28;20208;-77
2022/10/02 08:18:48;;;;;;;0.85;0.80;;;;;;;19.71;92.71;99983.19;5014002;28;20286;-76
2022/10/02 08:21:20;;;;;;;0.70;0.70;;;;;;;19.61;92.31;99967.66;5016152;28;20216;-75
2022/10/02 08:23:55;;;;;;;0.60;0.60;;;;;;;19.87;90.89;99986.31;5012748;28;20248;-75
2022/10/02 08:26:26;;;;;;;0.90;0.90;;;;;;;19.91;92.36;99979.19;5012181;28;20212;-73
2022/10/02 08:29:00;;;;;;;0.90;0.90;;;;;;;20.10;90.24;99999.78;5099748;28;20198;-76
2022/10/02 08:31:27;;;;;;;1.50;0.95;;;;;;;19.95;89.73;99988.75;5074196;28;20285;-77
2022/10/02 08:33:55;;;;;;;0.80;0.80;;;;;;;19.83;90.95;99994.34;5099795;28;20225;-77
2022/10/02 08:36:45;;;;;;;0.80;0.80;;;;;;;20.02;90.56;100001.72;5059092;28;20201;-79
2022/10/02 08:39:28;;;;;;;0.60;0.60;;;;;;;19.92;89.57;99981.81;5065107;28;20193;-77
2022/10/02 08:42:36;;;;;;;0.70;0.70;;;;;;;20.03;88.21;99985.03;5095954;28;20571;-78
2022/10/02 08:45:39;;;;;;;0.70;0.70;;;;;;;20.37;87.37;100029.84;5021072;28;20231;-76
2022/10/02 08:48:42;;;;;;;0.70;0.70;;;;;;;20.38;85.99;100005.22;5019232;28;20236;-75
2022/10/02 08:51:51;;;;;;;0.88;0.80;;;;;;;20.44;86.47;100020.88;5018263;28;20216;-77
2022/10/02 08:54:48;;;;;;;0.65;0.63;;;;;;;20.44;82.73;100034.03;5019654;28;20329;-78
2022/10/02 08:57:44;;;;;;;0.93;0.93;;;;;;;20.34;83.92;100031.69;5023367;28;20210;-76
2022/10/02 09:00:22;;;;;;;0.70;0.70;;;;;;;20.11;83.79;100001.50;5025823;28;20578;-76
2022/10/02 09:03:32;;;;;;;0.70;0.70;;;;;;;20.16;85.08;100015.41;5029503;28;20203;-76
2022/10/02 09:06:38;;;;;;;1.67;1.58;;;;;;;20.34;84.25;100010.59;5019882;28;20286;-75
2022/10/02 09:09:50;;;;;;;0.70;0.70;;;;;;;20.44;83.30;100030.56;5021568;28;20287;-76
2022/10/02 09:12:58;;;;;;;0.80;0.80;;;;;;;20.49;83.05;100002.31;4933506;29;20200;-76
2022/10/02 09:15:43;;;;;;;0.80;0.80;;;;;;;20.23;82.91;99977.50;4892730;29;20205;-76
2022/10/02 09:18:17;;;;;;;0.75;0.75;;;;;;;20.54;81.10;100037.31;4900980;29;20216;-74
2022/10/02 09:21:08;;;;;;;2.42;1.08;;;;;;;20.23;81.60;100001.19;4914686;28;20210;-75
2022/10/02 09:24:03;;;;;;;0.70;0.70;;;;;;;20.38;82.47;100026.31;4969945;28;20210;-78
2022/10/02 09:26:50;;;;;;;2.17;1.02;;;;;;;20.50;81.83;100010.19;4975316;28;20234;-76
2022/10/02 09:30:04;;;;;;;1.55;0.93;;;;;;;20.52;81.62;100010.13;4971724;28;20656;-77
2022/10/02 09:33:01;;;;;;;2.13;1.65;;;;;;;20.62;82.61;100012.47;4846626;29;20623;-78
2022/10/02 09:36:05;;;;;;;0.70;0.70;;;;;;;20.68;81.48;100019.38;4841666;29;20213;-78
2022/10/02 09:38:53;;;;;;;0.70;0.70;;;;;;;20.59;81.60;99987.97;4842153;29;20202;-77
2022/10/02 09:41:48;;;;;;;0.70;0.70;;;;;;;20.93;82.30;100001.97;4836042;29;20215;-78
2022/10/02 09:44:44;;;;;;;2.67;1.10;;;;;;;21.02;81.24;99993.78;4805994;29;20210;-76
2022/10/02 09:47:35;;;;;;;0.73;0.73;;;;;;;21.14;79.47;100025.13;4863450;29;20216;-77
2022/10/02 09:50:33;;;;;;;0.70;0.70;;;;;;;20.94;77.28;99981.75;4882806;29;20295;-76
2022/10/02 09:53:22;;;;;;;0.85;0.82;;;;;;;20.83;76.67;99989.97;4877826;29;20302;-78
2022/10/02 09:56:24;;;;;;;0.60;0.60;;;;;;;20.84;77.73;99989.03;4923068;29;20659;-77
2022/10/02 09:59:17;;;;;;;0.70;0.70;;;;;;;20.98;76.32;99981.59;4928598;29;21008;-74
2022/10/02 10:02:17;;;;;;;1.65;0.88;;;;;;;21.05;76.25;100003.38;4932001;29;20219;-77
2022/10/02 10:05:31;;;;;;;1.35;0.90;;;;;;;21.15;73.88;100018.06;4853202;29;20241;-83
2022/10/02 10:08:25;;;;;;;1.65;0.90;;;;;;;21.02;74.93;100006.09;4846044;29;20205;-79
2022/10/02 10:11:12;;;;;;;3.40;1.23;;;;;;;21.19;74.97;100023.19;4873765;29;20215;-81
2022/10/02 10:14:11;;;;;;;2.80;1.17;;;;;;;21.16;73.97;100018.00;4933348;29;20215;-80
2022/10/02 10:17:10;;;;;;;0.90;0.90;;;;;;;21.11;74.30;99990.94;4910566;29;20603;-76
2022/10/02 10:20:16;;;;;;;1.42;0.82;;;;;;;21.24;71.04;100066.13;4932493;29;20640;-81
2022/10/02 10:23:07;;;;;;;1.75;1.00;;;;;;;21.52;70.00;100016.06;4876290;29;20224;-81
2022/10/02 10:25:50;;;;;;;0.77;0.75;;;;;;;21.46;68.85;100042.63;4870342;29;20233;-84
2022/10/02 10:28:44;;;;;;;2.22;1.10;;;;;;;21.44;69.33;100027.75;4876444;29;20523;-81
2022/10/02 10:31:42;;;;;;;0.70;0.70;;;;;;;21.40;69.81;100002.38;4865832;29;20213;-79
2022/10/02 10:34:44;;;;;;;0.95;0.85;;;;;;;21.48;69.10;100042.56;4876677;29;20213;-80
2022/10/02 10:40:26;;;;;;;3.83;1.30;;;;;;;21.64;67.60;100009.53;4878777;29;20825;-80
2022/10/02 10:43:41;;;;;;;3.35;1.20;;;;;;;21.87;68.51;100020.22;4957317;28;20943;-80
2022/10/02 10:46:38;;;;;;;2.38;0.90;;;;;;;21.82;63.10;100019.53;4962172;28;20286;-80
2022/10/02 10:49:24;;;;;;;0.73;0.73;;;;;;;21.66;65.62;100002.44;4971851;28;20208;-79
2022/10/02 10:52:02;;;;;;;1.85;0.93;;;;;;;21.94;64.60;100029.69;4967850;28;20697;-79
2022/10/02 10:54:54;;;;;;;0.85;0.77;;;;;;;21.89;63.70;100021.06;4970783;28;20729;-80
2022/10/02 10:57:39;;;;;;;0.70;0.70;;;;;;;22.01;62.19;100031.22;4967913;28;20221;-80
2022/10/02 11:00:19;;;;;;;2.60;1.10;;;;;;;21.88;59.78;100024.59;5010040;28;20212;-78
2022/10/02 11:03:00;;;;;;;2.17;1.05;;;;;;;21.88;60.02;100018.44;5029043;28;20204;-79
2022/10/02 11:06:03;;;;;;;1.48;0.90;;;;;;;21.63;58.21;99987.56;5030110;28;20335;-80
2022/10/02 11:08:53;;;;;;;1.27;0.75;;;;;;;21.85;57.12;100013.28;5014102;28;20204;-79
2022/10/02 11:11:23;;;;;;;0.95;0.77;;;;;;;21.70;56.47;100017.25;5020505;28;20213;-76
2022/10/02 11:14:09;;;;;;;0.80;0.75;;;;;;;21.86;57.59;100026.44;5021268;28;20208;-76
2022/10/02 11:17:11;;;;;;;3.53;1.20;;;;;;;22.08;58.14;100030.13;5027962;28;20204;-77
2022/10/02 11:19:58;;;;;;;2.00;1.00;;;;;;;22.11;57.78;99993.06;5028952;28;20207;-82
2022/10/02 11:22:50;;;;;;;1.30;0.80;;;;;;;22.31;55.58;100033.78;5033329;28;20207;-78
2022/10/02 11:25:34;;;;;;;0.73;0.73;;;;;;;22.11;55.33;100029.19;5107130;28;20233;-79
2022/10/02 11:28:46;;;;;;;2.72;1.08;;;;;;;21.84;55.20;99995.69;5092140;28;20214;-80
2022/10/02 11:31:43;;;;;;;0.85;0.85;;;;;;;21.99;55.76;100006.66;5101815;28;20245;-79
2022/10/02 11:34:39;;;;;;;2.35;1.00;;;;;;;21.97;56.07;100007.63;5102992;28;20297;-77
2022/10/02 11:37:23;;;;;;;1.00;1.00;;;;;;;22.05;55.78;100016.16;5091371;28;20206;-79
2022/10/02 11:40:13;;;;;;;0.68;0.68;;;;;;;22.08;56.15;100016.91;5093800;28;20201;-79
2022/10/02 11:42:55;;;;;;;1.40;1.00;;;;;;;22.22;55.39;100012.03;5021684;28;20212;-79
2022/10/02 11:45:44;;;;;;;0.77;0.77;;;;;;;22.01;54.88;100002.19;5015620;28;20227;-79
2022/10/02 11:48:44;;;;;;;0.70;0.63;;;;;;;22.09;54.17;100016.00;5022545;28;20205;-79
2022/10/02 11:51:29;;;;;;;0.85;0.80;;;;;;;22.14;54.34;100016.72;5027832;28;20204;-78
2022/10/02 11:54:11;;;;;;;2.47;1.10;;;;;;;22.16;53.82;100019.31;5019015;28;20208;-79
2022/10/02 11:57:04;;;;;;;2.13;1.00;;;;;;;22.22;54.07;100033.16;5024538;28;20204;-78
2022/10/02 11:59:48;;;;;;;1.17;0.80;;;;;;;22.28;53.89;100029.47;5015123;28;20220;-78
2022/10/02 12:02:22;;;;;;;4.82;1.35;;;;;;;22.42;53.99;100021.06;4997778;28;20212;-80
2022/10/02 12:05:04;;;;;;;2.97;1.10;;;;;;;22.29;53.49;99993.34;5027895;28;20199;-79
2022/10/02 12:07:43;;;;;;;0.95;0.80;;;;;;;22.56;53.63;100002.97;5027901;28;20351;-78
2022/10/02 12:10:27;;;;;;;1.33;0.85;;;;;;;22.53;53.95;100009.22;5021232;28;20380;-82
2022/10/02 12:13:08;;;;;;;0.82;0.68;;;;;;;22.46;51.71;100012.13;5034559;28;20228;-78
2022/10/02 12:15:46;;;;;;;1.63;0.90;;;;;;;22.49;51.81;99989.09;5029650;28;20759;-78
2022/10/02 12:18:26;;;;;;;1.83;0.95;;;;;;;22.67;51.67;100006.13;5037780;28;20580;-78
2022/10/02 12:27:10;;;;;;;3.70;1.23;;;;;;;21.88;51.19;99919.00;5101505;28;20241;-79
2022/10/02 12:29:51;;;;;;;3.03;1.10;;;;;;;22.41;50.55;100019.34;5092869;28;20201;-80
2022/10/02 12:32:31;;;;;;;2.88;1.10;;;;;;;22.30;49.61;99995.06;5047746;28;20740;-78
2022/10/02 12:35:16;;;;;;;1.95;0.98;;;;;;;22.40;49.91;99996.50;5108978;28;20204;-77
2022/10/02 12:37:52;;;;;;;3.95;1.27;;;;;;;22.39;49.93;100010.63;5090656;28;20206;-76